Decoded Metar for KPAM (PANAMA CITY in FL, USA) (IATA:PAM) | Meteo·Mobile Aviation Weather
aviador You're here:

KPAM Decoded Metar

PANAMA CITY in FL, USA
Report Time2018-08-19 04:56:00
UTC Time2018-08-19 05:28:03
Flight Rules vfr VFR
Wind210° at 06 kt
W.Decomp.*RWY 13: 0.9 kt HW 5.9 kt RCW
W.Rank210° ranks 26
Current wind is below 210° avg. (7.4)
Visibility9999 m
Phenomena:Light Drizzle
Clouds:Few 230 Hf
Expected CloudBase > 800 ft AGL from Temp-Dew spread
CeilingNone
Temp27°C (ISA +12)
Dew Point25°C (89% RH)
Heat Index30.6°C
QNH1016 hPa
Density Alt1,716 ft
Elevation16 ft
Report Wrong Elevation
Raw Report
KPAM 190456Z AUTO 21006KT 10SM -DZ FEW230 27/25 A2999 RMK AO2
SLP159 P0000 T02650247 $=

Extra information for KPAM:More info

Metar Taf Metar & Taf Last 4 Metars F.Rules Stats Wind Profile Meteogram Temp Stats Airport Information Weather charts Add Link Nearby VenuesMetar ALERT Operation Metar Decoded Social comments

AIRNAV info for KPAM